createdAt,value
2023-03-05T00:01:18.255Z,87.77
2023-03-05T00:03:46.470Z,88.44
2023-03-05T00:06:13.610Z,88.37
2023-03-05T00:08:40.778Z,88.66
2023-03-05T00:11:10.877Z,88.58
2023-03-05T00:13:38.539Z,88.19
2023-03-05T00:16:10.850Z,88.17
2023-03-05T00:18:38.783Z,88.63
2023-03-05T00:21:20.352Z,89.03
2023-03-05T00:23:47.860Z,89.47
2023-03-05T00:26:14.990Z,89.02
2023-03-05T00:28:42.977Z,89.06
2023-03-05T00:31:10.431Z,89.03
2023-03-05T00:33:37.577Z,89.17
2023-03-05T00:36:08.116Z,89.06
2023-03-05T00:38:35.857Z,89.43
2023-03-05T00:41:03.579Z,89.20
2023-03-05T00:43:30.754Z,89.02
2023-03-05T00:45:58.185Z,88.87
2023-03-05T00:48:25.676Z,88.85
2023-03-05T00:50:53.006Z,88.28
2023-03-05T00:53:20.676Z,88.23
2023-03-05T00:55:47.912Z,87.64
2023-03-05T00:58:15.030Z,87.16
2023-03-05T01:00:42.438Z,87.47
2023-03-05T01:03:09.922Z,87.50
2023-03-05T01:05:37.167Z,87.22
2023-03-05T01:08:04.878Z,87.42
2023-03-05T01:10:32.281Z,86.74
2023-03-05T01:12:59.474Z,86.81
2023-03-05T01:15:27.556Z,86.60
2023-03-05T01:17:54.993Z,86.55
2023-03-05T01:20:22.444Z,86.09
2023-03-05T01:22:49.904Z,85.96
2023-03-05T01:25:17.757Z,86.17
2023-03-05T01:27:44.945Z,86.27
2023-03-05T01:30:15.210Z,86.08
2023-03-05T01:32:43.084Z,86.25
2023-03-05T01:35:16.938Z,86.13
2023-03-05T01:37:44.648Z,85.97
2023-03-05T01:40:14.512Z,86.42
2023-03-05T01:42:47.048Z,86.59
2023-03-05T01:45:18.341Z,86.61
2023-03-05T01:47:45.761Z,86.33
2023-03-05T01:50:26.258Z,86.22
2023-03-05T01:53:01.400Z,85.95
2023-03-05T01:55:30.878Z,85.82
2023-03-05T01:58:06.609Z,85.83
2023-03-05T02:00:41.258Z,85.58
2023-03-05T02:03:11.944Z,85.82
2023-03-05T02:05:41.228Z,85.60
2023-03-05T02:08:14.704Z,85.35
2023-03-05T02:10:47.987Z,84.72
2023-03-05T02:13:23.077Z,85.03
2023-03-05T02:15:52.567Z,84.77
2023-03-05T02:18:21.134Z,84.85
2023-03-05T02:20:51.844Z,85.23
2023-03-05T02:23:21.107Z,85.41
2023-03-05T02:25:49.380Z,85.71
2023-03-05T02:28:23.083Z,85.60
2023-03-05T02:30:50.767Z,84.94
2023-03-05T02:33:18.585Z,84.25
2023-03-05T02:35:49.268Z,84.58
2023-03-05T02:38:19.040Z,84.87
2023-03-05T02:40:46.138Z,84.76
2023-03-05T02:43:13.714Z,83.41
2023-03-05T02:45:41.397Z,83.81
2023-03-05T02:48:08.627Z,83.95
2023-03-05T02:50:36.841Z,83.84
2023-03-05T02:53:04.204Z,83.28
2023-03-05T02:55:31.232Z,84.16
2023-03-05T02:57:59.428Z,84.55
2023-03-05T03:00:27.878Z,84.67
2023-03-05T03:02:55.633Z,84.83
2023-03-05T03:05:22.997Z,85.28
2023-03-05T03:07:50.903Z,85.51
2023-03-05T03:10:18.312Z,85.78
2023-03-05T03:12:45.677Z,85.16
2023-03-05T03:15:15.702Z,85.43
2023-03-05T03:17:43.316Z,85.74
2023-03-05T03:20:14.236Z,86.39
2023-03-05T03:22:42.452Z,86.67
2023-03-05T03:25:11.029Z,87.12
2023-03-05T03:27:38.165Z,87.35
2023-03-05T03:30:06.410Z,87.98
2023-03-05T03:32:34.193Z,88.06
2023-03-05T03:35:01.743Z,88.26
2023-03-05T03:37:29.517Z,88.42
2023-03-05T03:39:57.018Z,88.08
2023-03-05T03:42:24.848Z,88.20
2023-03-05T03:44:52.196Z,88.78
2023-03-05T03:47:19.323Z,89.78
2023-03-05T03:49:46.335Z,91.09
2023-03-05T03:52:13.674Z,91.01
2023-03-05T03:54:41.067Z,90.70
2023-03-05T03:57:08.103Z,90.10
2023-03-05T03:59:35.464Z,89.61
2023-03-05T04:02:02.763Z,89.94
2023-03-05T04:04:30.432Z,89.61
2023-03-05T04:06:57.657Z,89.62
2023-03-05T04:09:24.713Z,89.79
2023-03-05T04:11:52.122Z,89.89
2023-03-05T04:14:19.256Z,90.13
2023-03-05T04:16:46.350Z,89.96
2023-03-05T04:19:13.716Z,89.23
2023-03-05T04:21:40.837Z,89.29
2023-03-05T04:24:08.365Z,89.19
2023-03-05T04:26:36.056Z,89.05
2023-03-05T04:29:03.505Z,89.14
2023-03-05T04:31:30.568Z,89.35
2023-03-05T04:33:59.226Z,89.82
2023-03-05T04:36:26.361Z,90.00
2023-03-05T04:38:53.419Z,90.42
2023-03-05T04:41:20.778Z,90.83
2023-03-05T04:43:47.808Z,91.35
2023-03-05T04:46:14.862Z,90.54
2023-03-05T04:48:42.338Z,90.16
2023-03-05T04:51:09.343Z,89.55
2023-03-05T04:53:36.419Z,89.65
2023-03-05T04:56:05.296Z,89.83
2023-03-05T04:58:32.326Z,89.80
2023-03-05T05:01:04.734Z,89.68
2023-03-05T05:03:33.331Z,90.00
2023-03-05T05:06:01.125Z,89.93
2023-03-05T05:08:28.596Z,89.97
2023-03-05T05:11:00.966Z,90.28
2023-03-05T05:13:28.773Z,89.76
2023-03-05T05:15:56.396Z,89.95
2023-03-05T05:18:23.805Z,89.74
2023-03-05T05:20:51.210Z,89.47
2023-03-05T05:23:18.936Z,89.57
2023-03-05T05:25:46.028Z,89.53
2023-03-05T05:28:13.141Z,89.19
2023-03-05T05:30:40.547Z,89.08
2023-03-05T05:33:07.648Z,89.17
2023-03-05T05:35:34.871Z,88.99
2023-03-05T05:38:02.277Z,88.42
2023-03-05T05:40:29.561Z,88.62
2023-03-05T05:42:56.641Z,88.95
2023-03-05T05:45:24.188Z,89.07
2023-03-05T05:47:51.397Z,89.40
2023-03-05T05:50:20.526Z,88.80
2023-03-05T05:52:48.002Z,88.06
2023-03-05T05:55:15.076Z,88.11
2023-03-05T05:57:42.209Z,88.02
2023-03-05T06:00:11.853Z,87.21
2023-03-05T06:02:40.105Z,86.63
2023-03-05T06:05:09.812Z,85.70
2023-03-05T06:07:37.012Z,85.06
2023-03-05T06:10:04.577Z,84.48
2023-03-05T06:12:31.944Z,84.56
2023-03-05T06:14:59.033Z,84.35
2023-03-05T06:17:30.808Z,84.01
2023-03-05T06:19:59.545Z,83.63
2023-03-05T06:22:27.012Z,83.12
2023-03-05T06:24:54.063Z,82.88
2023-03-05T06:27:21.590Z,83.04
2023-03-05T06:29:52.514Z,83.15
2023-03-05T06:32:20.122Z,82.87
2023-03-05T06:34:47.569Z,82.97
2023-03-05T06:37:14.789Z,82.97
2023-03-05T06:39:41.907Z,81.92
2023-03-05T06:42:10.155Z,81.67
2023-03-05T06:44:41.190Z,80.90
2023-03-05T06:47:10.587Z,81.19
2023-03-05T06:49:39.144Z,80.65
2023-03-05T06:52:07.439Z,80.20
2023-03-05T06:54:34.482Z,80.00
2023-03-05T06:57:02.006Z,79.27
2023-03-05T06:59:29.276Z,79.13
2023-03-05T07:01:56.346Z,79.59
2023-03-05T07:04:24.398Z,79.69
2023-03-05T07:06:51.631Z,80.13
2023-03-05T07:09:18.746Z,79.54
2023-03-05T07:11:46.153Z,79.52
2023-03-05T07:14:13.257Z,78.96
2023-03-05T07:16:40.361Z,79.12
2023-03-05T07:19:08.058Z,79.59
2023-03-05T07:21:38.327Z,79.28
2023-03-05T07:24:07.764Z,79.10
2023-03-05T07:26:35.354Z,78.62
2023-03-05T07:29:02.859Z,78.08
2023-03-05T07:31:33.253Z,78.25
2023-03-05T07:34:02.497Z,77.56
2023-03-05T07:36:30.515Z,77.53
2023-03-05T07:38:57.934Z,78.02
2023-03-05T07:41:25.333Z,78.10
2023-03-05T07:43:54.463Z,77.39
2023-03-05T07:46:24.776Z,77.69
2023-03-05T07:48:54.621Z,77.89
2023-03-05T07:51:23.264Z,77.18
2023-03-05T07:53:51.898Z,78.00
2023-03-05T07:56:35.260Z,78.18
2023-03-05T07:59:05.956Z,77.10
2023-03-05T08:01:33.854Z,76.54
2023-03-05T08:04:02.347Z,76.09
2023-03-05T08:06:29.487Z,74.75
2023-03-05T08:08:58.185Z,74.67
2023-03-05T08:11:26.078Z,75.16
2023-03-05T08:13:53.106Z,74.24
2023-03-05T08:16:21.732Z,74.21
2023-03-05T08:18:49.459Z,74.98
2023-03-05T08:21:22.030Z,74.20
2023-03-05T08:23:49.718Z,74.16
2023-03-05T08:26:20.788Z,74.03
2023-03-05T08:28:48.228Z,74.33
2023-03-05T08:31:17.681Z,74.67
2023-03-05T08:33:44.898Z,73.86
2023-03-05T08:36:12.051Z,73.13
2023-03-05T08:38:39.491Z,72.65
2023-03-05T08:41:06.586Z,71.94
2023-03-05T08:43:33.857Z,71.57
2023-03-05T08:46:01.915Z,72.06
2023-03-05T08:48:29.879Z,71.93
2023-03-05T08:50:56.965Z,71.94
2023-03-05T08:53:24.585Z,73.13
2023-03-05T08:55:56.168Z,73.89
2023-03-05T08:58:23.892Z,73.42
2023-03-05T09:00:51.357Z,73.62
2023-03-05T09:03:19.502Z,74.21
2023-03-05T09:05:46.799Z,73.72
2023-03-05T09:08:14.680Z,72.69
2023-03-05T09:10:45.687Z,72.07
2023-03-05T09:13:12.935Z,72.04
2023-03-05T09:15:40.276Z,72.62
2023-03-05T09:18:09.056Z,72.67
2023-03-05T09:20:37.240Z,72.26
2023-03-05T09:23:04.601Z,72.77
2023-03-05T09:25:31.685Z,73.14
2023-03-05T09:27:58.687Z,72.69
2023-03-05T09:30:26.142Z,72.17
2023-03-05T09:32:53.240Z,73.48
2023-03-05T09:35:20.325Z,72.49
2023-03-05T09:37:47.709Z,72.33
2023-03-05T09:40:18.180Z,71.53
2023-03-05T09:43:03.406Z,71.68
2023-03-05T09:45:40.126Z,71.52
2023-03-05T09:48:16.423Z,72.37
2023-03-05T09:51:01.316Z,71.27
2023-03-05T09:53:28.287Z,70.91
2023-03-05T09:56:00.625Z,70.79
2023-03-05T09:58:59.789Z,70.85
2023-03-05T10:01:38.897Z,70.94
2023-03-05T10:04:09.074Z,69.51
2023-03-05T10:06:50.319Z,69.54
2023-03-05T10:09:43.905Z,69.05
2023-03-05T10:12:39.139Z,68.02
2023-03-05T10:15:51.484Z,67.53
2023-03-05T10:18:39.230Z,67.36
2023-03-05T10:21:22.159Z,67.19
2023-03-05T10:24:25.513Z,66.70
2023-03-05T10:27:18.265Z,66.16
2023-03-05T10:30:08.387Z,64.75
2023-03-05T10:32:46.458Z,64.30
2023-03-05T10:35:31.660Z,64.49
2023-03-05T10:38:32.170Z,63.66
2023-03-05T10:41:08.566Z,62.99
2023-03-05T10:43:54.472Z,61.48
2023-03-05T10:46:31.394Z,61.42
2023-03-05T10:49:37.598Z,59.71
2023-03-05T10:52:27.026Z,58.96
2023-03-05T10:54:54.602Z,58.23
2023-03-05T10:57:23.305Z,58.64
2023-03-05T10:59:54.721Z,57.31
2023-03-05T11:02:23.678Z,57.27
2023-03-05T11:04:52.263Z,57.65
2023-03-05T11:07:19.304Z,56.40
2023-03-05T11:10:04.037Z,55.72
2023-03-05T11:12:36.620Z,56.26
2023-03-05T11:15:26.341Z,55.82
2023-03-05T11:18:34.275Z,55.11
2023-03-05T11:21:23.942Z,56.23
2023-03-05T11:24:23.508Z,58.11
2023-03-05T11:26:53.923Z,57.48
2023-03-05T11:29:32.469Z,58.20
2023-03-05T11:32:22.098Z,56.98
2023-03-05T11:34:49.504Z,55.93
2023-03-05T11:37:31.796Z,53.62
2023-03-05T11:40:08.269Z,53.08
2023-03-05T11:42:38.393Z,51.93
2023-03-05T11:45:06.741Z,52.42
2023-03-05T11:47:38.116Z,53.23
2023-03-05T11:50:24.756Z,54.12
2023-03-05T11:53:02.326Z,53.73
2023-03-05T11:56:00.666Z,54.31
2023-03-05T11:58:50.236Z,53.76
2023-03-05T12:01:21.922Z,54.26
2023-03-05T12:03:51.497Z,54.28
2023-03-05T12:06:43.654Z,53.70
2023-03-05T12:09:26.538Z,53.85
2023-03-05T12:12:05.497Z,54.25
2023-03-05T12:14:43.128Z,54.29
2023-03-05T12:17:17.780Z,53.10
2023-03-05T12:20:06.764Z,54.16
2023-03-05T12:22:38.347Z,53.92
2023-03-05T12:25:34.053Z,52.70
2023-03-05T12:28:01.551Z,53.38
2023-03-05T12:30:34.610Z,53.35
2023-03-05T12:33:03.983Z,54.06
2023-03-05T12:35:38.442Z,53.83
2023-03-05T12:38:26.753Z,53.91
2023-03-05T12:41:24.173Z,53.35
2023-03-05T12:44:06.558Z,53.37
2023-03-05T12:46:37.559Z,51.59
2023-03-05T12:49:27.993Z,51.09
2023-03-05T12:51:59.189Z,52.10
2023-03-05T12:54:39.755Z,53.10
2023-03-05T12:57:20.306Z,53.51
2023-03-05T13:00:25.940Z,54.71
2023-03-05T13:02:58.866Z,54.35
2023-03-05T13:05:33.249Z,54.81
2023-03-05T13:08:31.688Z,55.32
2023-03-05T13:11:16.375Z,56.39
2023-03-05T13:13:46.692Z,56.99
2023-03-05T13:16:25.175Z,56.82
2023-03-05T13:18:54.431Z,56.59
2023-03-05T13:21:26.973Z,56.83
2023-03-05T13:24:00.771Z,56.45
2023-03-05T13:26:37.246Z,55.63
2023-03-05T13:29:10.495Z,55.10
2023-03-05T13:31:46.934Z,55.05
2023-03-05T13:34:37.457Z,54.84
2023-03-05T13:37:20.900Z,54.85
2023-03-05T13:39:50.057Z,55.31
2023-03-05T13:42:23.554Z,55.32
2023-03-05T13:44:55.096Z,54.54
2023-03-05T13:47:24.215Z,54.52
2023-03-05T13:50:00.177Z,54.84
2023-03-05T13:52:32.777Z,55.19
2023-03-05T13:55:01.400Z,54.78
2023-03-05T13:57:43.051Z,54.46
2023-03-05T14:00:34.549Z,52.83
2023-03-05T14:03:23.629Z,53.24
2023-03-05T14:05:51.396Z,53.45
2023-03-05T14:08:26.587Z,54.15
2023-03-05T14:10:57.060Z,54.49
2023-03-05T14:13:27.071Z,53.74
2023-03-05T14:16:05.623Z,55.07
2023-03-05T14:18:34.124Z,54.80
2023-03-05T14:21:04.637Z,55.36
2023-03-05T14:23:46.502Z,56.25
2023-03-05T14:26:29.358Z,56.22
2023-03-05T14:29:02.889Z,57.00
2023-03-05T14:31:38.588Z,57.71
2023-03-05T14:34:07.426Z,57.25
2023-03-05T14:36:35.047Z,57.28
2023-03-05T14:39:02.255Z,56.97
2023-03-05T14:41:42.286Z,57.12
2023-03-05T14:44:15.888Z,56.97
2023-03-05T14:46:47.818Z,57.81
2023-03-05T14:49:15.847Z,56.92
2023-03-05T14:51:45.988Z,57.11
2023-03-05T14:54:26.438Z,57.68
2023-03-05T14:56:53.877Z,58.43
2023-03-05T14:59:23.690Z,59.31
2023-03-05T15:01:50.938Z,60.03
2023-03-05T15:04:21.453Z,60.54
2023-03-05T15:06:51.188Z,61.33
2023-03-05T15:09:21.022Z,62.15
2023-03-05T15:11:48.623Z,62.48
2023-03-05T15:14:15.658Z,63.23
2023-03-05T15:16:45.397Z,64.25
2023-03-05T15:19:13.427Z,64.84
2023-03-05T15:21:41.202Z,65.50
2023-03-05T15:24:11.168Z,65.50
2023-03-05T15:26:38.672Z,65.14
2023-03-05T15:29:05.873Z,65.32
2023-03-05T15:31:38.575Z,65.84
2023-03-05T15:34:06.635Z,65.74
2023-03-05T15:36:34.053Z,66.03
2023-03-05T15:39:01.168Z,66.47
2023-03-05T15:41:28.300Z,66.05
2023-03-05T15:43:55.676Z,65.83
2023-03-05T15:46:23.079Z,65.77
2023-03-05T15:48:50.336Z,66.42
2023-03-05T15:51:18.147Z,67.21
2023-03-05T15:53:46.423Z,66.68
2023-03-05T15:56:17.708Z,66.34
2023-03-05T15:58:45.435Z,66.73
2023-03-05T16:01:12.863Z,66.13
2023-03-05T16:03:40.305Z,66.94
2023-03-05T16:06:09.914Z,66.37
2023-03-05T16:08:37.175Z,66.63
2023-03-05T16:11:05.495Z,67.21
2023-03-05T16:13:33.372Z,67.37
2023-03-05T16:16:03.226Z,67.84
2023-03-05T16:18:34.613Z,67.87
2023-03-05T16:21:02.240Z,68.13
2023-03-05T16:23:29.584Z,68.36
2023-03-05T16:25:58.695Z,68.80
2023-03-05T16:28:26.641Z,68.68
2023-03-05T16:30:55.375Z,69.16
2023-03-05T16:33:23.298Z,68.39
2023-03-05T16:35:50.527Z,68.84
2023-03-05T16:38:19.152Z,69.03
2023-03-05T16:41:06.944Z,69.80
2023-03-05T16:43:33.529Z,70.24
2023-03-05T16:46:00.831Z,70.56
2023-03-05T16:48:29.654Z,71.05
2023-03-05T16:50:57.789Z,70.48
2023-03-05T16:53:25.336Z,71.48
2023-03-05T16:55:52.336Z,71.45
2023-03-05T16:58:19.354Z,71.55
2023-03-05T17:00:46.728Z,71.51
2023-03-05T17:03:13.729Z,71.32
2023-03-05T17:05:40.762Z,71.14
2023-03-05T17:08:08.089Z,70.54
2023-03-05T17:10:35.146Z,70.57
2023-03-05T17:13:02.223Z,70.66
2023-03-05T17:15:29.548Z,70.41
2023-03-05T17:17:56.601Z,70.74
2023-03-05T17:20:23.651Z,71.40
2023-03-05T17:22:51.031Z,71.37
2023-03-05T17:25:18.784Z,71.10
2023-03-05T17:27:45.787Z,71.01
2023-03-05T17:30:13.735Z,70.78
2023-03-05T17:32:43.861Z,71.23
2023-03-05T17:35:19.012Z,71.98
2023-03-05T17:37:46.419Z,71.78
2023-03-05T17:40:14.887Z,72.10
2023-03-05T17:42:42.059Z,72.31
2023-03-05T17:45:10.028Z,72.20
2023-03-05T17:47:37.511Z,72.51
2023-03-05T17:50:05.636Z,72.44
2023-03-05T17:52:33.636Z,73.01
2023-03-05T17:55:00.751Z,73.47
2023-03-05T17:57:27.824Z,74.30
2023-03-05T17:59:55.192Z,74.70
2023-03-05T18:02:22.191Z,74.49
2023-03-05T18:04:52.091Z,74.21
2023-03-05T18:07:19.158Z,73.87
2023-03-05T18:09:46.225Z,73.93
2023-03-05T18:12:13.556Z,74.09
2023-03-05T18:14:40.567Z,74.56
2023-03-05T18:17:07.688Z,73.94
2023-03-05T18:19:35.014Z,73.09
2023-03-05T18:22:02.100Z,72.62
2023-03-05T18:24:29.146Z,72.76
2023-03-05T18:26:56.481Z,72.22
2023-03-05T18:29:23.474Z,71.79
2023-03-05T18:31:50.477Z,72.16
2023-03-05T18:34:19.221Z,71.20
2023-03-05T18:36:46.274Z,70.63
2023-03-05T18:39:13.368Z,70.83
2023-03-05T18:41:41.695Z,71.04
2023-03-05T18:44:08.973Z,70.57
2023-03-05T18:46:36.003Z,70.55
2023-03-05T18:49:03.419Z,71.19
2023-03-05T18:51:30.557Z,70.84
2023-03-05T18:53:57.949Z,71.35
2023-03-05T18:56:25.537Z,71.17
2023-03-05T18:58:53.069Z,71.51
2023-03-05T19:01:20.617Z,71.84
2023-03-05T19:03:49.334Z,72.05
2023-03-05T19:06:17.684Z,72.01
2023-03-05T19:08:45.569Z,72.21
2023-03-05T19:11:23.100Z,72.16
2023-03-05T19:13:51.584Z,72.53
2023-03-05T19:16:23.562Z,72.55
2023-03-05T19:19:26.139Z,73.11
2023-03-05T19:21:57.054Z,73.52
2023-03-05T19:24:28.634Z,73.96
2023-03-05T19:27:00.198Z,74.19
2023-03-05T19:29:32.829Z,74.48
2023-03-05T19:32:00.360Z,75.02
2023-03-05T19:34:27.500Z,75.78
2023-03-05T19:36:54.618Z,75.93
2023-03-05T19:39:22.079Z,76.35
2023-03-05T19:41:49.256Z,76.42
2023-03-05T19:44:16.511Z,76.58
2023-03-05T19:46:43.871Z,76.88
2023-03-05T19:49:11.170Z,76.97
2023-03-05T19:51:39.850Z,77.16
2023-03-05T19:54:07.364Z,76.97
2023-03-05T19:56:37.903Z,76.37
2023-03-05T19:59:04.967Z,76.58
2023-03-05T20:01:32.577Z,76.25
2023-03-05T20:04:01.723Z,77.08
2023-03-05T20:06:30.258Z,77.19
2023-03-05T20:08:57.496Z,77.91
2023-03-05T20:11:25.830Z,78.21
2023-03-05T20:13:53.829Z,77.15
2023-03-05T20:16:30.980Z,76.89
2023-03-05T20:19:07.298Z,77.04
2023-03-05T20:21:37.087Z,77.18
2023-03-05T20:24:11.936Z,76.67
2023-03-05T20:26:40.947Z,76.80
2023-03-05T20:29:08.718Z,77.08
2023-03-05T20:31:37.315Z,77.48
2023-03-05T20:34:06.619Z,77.58
2023-03-05T20:36:36.967Z,77.45
2023-03-05T20:39:05.223Z,77.50
2023-03-05T20:41:34.231Z,77.37
2023-03-05T20:44:03.352Z,77.25
2023-03-05T20:46:33.219Z,77.23
2023-03-05T20:49:01.972Z,76.78
2023-03-05T20:51:35.831Z,76.62
2023-03-05T20:54:08.709Z,76.41
2023-03-05T20:56:37.596Z,76.30
2023-03-05T20:59:08.595Z,76.20
2023-03-05T21:01:39.101Z,76.40
2023-03-05T21:04:07.207Z,76.84
2023-03-05T21:06:35.132Z,76.50
2023-03-05T21:09:02.735Z,76.83
2023-03-05T21:11:29.873Z,76.67
2023-03-05T21:13:57.084Z,76.90
2023-03-05T21:16:26.387Z,76.37
2023-03-05T21:18:55.915Z,76.42
2023-03-05T21:21:23.619Z,75.92
2023-03-05T21:23:52.146Z,76.38
2023-03-05T21:26:19.740Z,75.94
2023-03-05T21:28:46.847Z,76.13
2023-03-05T21:31:20.528Z,75.76
2023-03-05T21:33:48.196Z,75.18
2023-03-05T21:36:19.145Z,75.80
2023-03-05T21:38:47.178Z,76.10
2023-03-05T21:41:14.683Z,75.75
2023-03-05T21:43:42.743Z,75.86
2023-03-05T21:46:10.884Z,76.27
2023-03-05T21:48:38.063Z,76.25
2023-03-05T21:51:36.850Z,76.25
2023-03-05T21:54:24.773Z,76.75
2023-03-05T21:56:52.215Z,76.79
2023-03-05T21:59:19.321Z,76.21
2023-03-05T22:01:46.331Z,75.61
2023-03-05T22:04:13.749Z,76.14
2023-03-05T22:06:40.807Z,75.76
2023-03-05T22:09:07.830Z,75.44
2023-03-05T22:11:35.186Z,75.69
2023-03-05T22:14:02.253Z,75.87
2023-03-05T22:16:29.362Z,75.68
2023-03-05T22:18:56.801Z,75.57
2023-03-05T22:21:28.967Z,75.74
2023-03-05T22:23:58.562Z,76.36
2023-03-05T22:26:33.443Z,75.90
2023-03-05T22:29:01.538Z,75.94
2023-03-05T22:31:28.887Z,75.90
2023-03-05T22:33:56.609Z,76.20
2023-03-05T22:36:24.536Z,76.39
2023-03-05T22:38:52.286Z,75.85
2023-03-05T22:41:21.044Z,74.73
2023-03-05T22:43:49.304Z,74.34
2023-03-05T22:46:19.395Z,73.84
2023-03-05T22:48:47.135Z,74.44
2023-03-05T22:51:15.237Z,74.17
2023-03-05T22:53:42.792Z,74.48
2023-03-05T22:56:13.069Z,74.23
2023-03-05T22:58:40.690Z,73.88
2023-03-05T23:01:19.622Z,73.62
2023-03-05T23:04:35.272Z,74.63
2023-03-05T23:07:09.867Z,73.75
2023-03-05T23:09:37.253Z,74.00
2023-03-05T23:12:04.762Z,74.56
2023-03-05T23:14:31.861Z,75.12
2023-03-05T23:16:59.258Z,75.54
2023-03-05T23:19:26.369Z,75.68
2023-03-05T23:21:53.442Z,75.20
2023-03-05T23:24:20.880Z,75.43
2023-03-05T23:26:48.050Z,75.43
2023-03-05T23:29:57.569Z,75.69
2023-03-05T23:32:40.300Z,75.16
2023-03-05T23:35:10.111Z,74.69
2023-03-05T23:37:37.204Z,75.05
2023-03-05T23:40:06.796Z,74.64
2023-03-05T23:42:34.013Z,74.75
2023-03-05T23:45:01.107Z,75.58
2023-03-05T23:47:28.604Z,75.09
2023-03-05T23:49:55.689Z,75.33
2023-03-05T23:52:22.855Z,75.16
2023-03-05T23:54:50.234Z,75.19
2023-03-05T23:57:19.612Z,75.57
2023-03-05T23:59:46.733Z,75.73
